sensor_id;sensor_type;location;lat;lon;timestamp;temperature;humidity
24408;DHT22;12542;50.924;4.516;2023-05-10T00:00:24;14.50;99.90
24408;DHT22;12542;50.924;4.516;2023-05-10T00:02:49;14.50;99.90
24408;DHT22;12542;50.924;4.516;2023-05-10T00:05:15;14.60;99.90
24408;DHT22;12542;50.924;4.516;2023-05-10T00:07:41;14.60;99.90
24408;DHT22;12542;50.924;4.516;2023-05-10T00:10:10;14.70;99.90
24408;DHT22;12542;50.924;4.516;2023-05-10T00:12:36;14.70;99.90
24408;DHT22;12542;50.924;4.516;2023-05-10T00:15:02;14.70;99.90
24408;DHT22;12542;50.924;4.516;2023-05-10T00:17:28;14.60;99.90
24408;DHT22;12542;50.924;4.516;2023-05-10T00:19:54;14.60;99.90
24408;DHT22;12542;50.924;4.516;2023-05-10T00:22:22;14.70;99.90
24408;DHT22;12542;50.924;4.516;2023-05-10T00:24:48;14.60;99.90
24408;DHT22;12542;50.924;4.516;2023-05-10T00:27:14;14.60;99.90
24408;DHT22;12542;50.924;4.516;2023-05-10T00:29:40;14.60;99.90
24408;DHT22;12542;50.924;4.516;2023-05-10T00:32:05;14.60;99.90
24408;DHT22;12542;50.924;4.516;2023-05-10T00:34:31;14.70;99.90
24408;DHT22;12542;50.924;4.516;2023-05-10T00:36:57;14.80;99.90
24408;DHT22;12542;50.924;4.516;2023-05-10T00:39:22;14.70;99.90
24408;DHT22;12542;50.924;4.516;2023-05-10T00:41:48;14.70;99.90
24408;DHT22;12542;50.924;4.516;2023-05-10T00:44:14;14.70;99.90
24408;DHT22;12542;50.924;4.516;2023-05-10T00:46:40;14.70;99.90
24408;DHT22;12542;50.924;4.516;2023-05-10T00:49:06;14.60;99.90
24408;DHT22;12542;50.924;4.516;2023-05-10T00:51:33;14.70;99.90
24408;DHT22;12542;50.924;4.516;2023-05-10T00:53:59;14.60;99.90
24408;DHT22;12542;50.924;4.516;2023-05-10T00:56:25;14.60;99.90
24408;DHT22;12542;50.924;4.516;2023-05-10T00:58:52;14.60;99.90
24408;DHT22;12542;50.924;4.516;2023-05-10T01:01:18;14.70;99.90
24408;DHT22;12542;50.924;4.516;2023-05-10T01:03:44;14.70;99.90
24408;DHT22;12542;50.924;4.516;2023-05-10T01:06:10;14.70;99.90
24408;DHT22;12542;50.924;4.516;2023-05-10T01:08:36;14.70;99.90
24408;DHT22;12542;50.924;4.516;2023-05-10T01:11:02;14.60;99.90
24408;DHT22;12542;50.924;4.516;2023-05-10T01:15:58;14.60;99.90
24408;DHT22;12542;50.924;4.516;2023-05-10T01:18:25;14.70;99.90
24408;DHT22;12542;50.924;4.516;2023-05-10T01:21:04;14.60;99.90
24408;DHT22;12542;50.924;4.516;2023-05-10T01:32:10;14.70;99.90
24408;DHT22;12542;50.924;4.516;2023-05-10T01:35:06;14.70;99.90
24408;DHT22;12542;50.924;4.516;2023-05-10T01:37:46;14.70;99.90
24408;DHT22;12542;50.924;4.516;2023-05-10T01:40:32;14.70;99.90
24408;DHT22;12542;50.924;4.516;2023-05-10T01:43:04;14.70;99.90
24408;DHT22;12542;50.924;4.516;2023-05-10T01:45:37;14.80;99.90
24408;DHT22;12542;50.924;4.516;2023-05-10T01:48:08;14.80;99.90
24408;DHT22;12542;50.924;4.516;2023-05-10T01:50:43;14.80;99.90
24408;DHT22;12542;50.924;4.516;2023-05-10T01:53:10;14.80;99.90
24408;DHT22;12542;50.924;4.516;2023-05-10T01:55:55;14.80;99.90
24408;DHT22;12542;50.924;4.516;2023-05-10T01:58:31;14.80;99.90
24408;DHT22;12542;50.924;4.516;2023-05-10T02:00:59;14.80;99.90
24408;DHT22;12542;50.924;4.516;2023-05-10T02:03:26;14.80;99.90
24408;DHT22;12542;50.924;4.516;2023-05-10T02:05:54;15.00;99.90
24408;DHT22;12542;50.924;4.516;2023-05-10T02:08:22;14.80;99.90
24408;DHT22;12542;50.924;4.516;2023-05-10T02:10:50;14.70;99.90
24408;DHT22;12542;50.924;4.516;2023-05-10T02:13:17;14.70;99.90
24408;DHT22;12542;50.924;4.516;2023-05-10T02:15:45;14.60;99.90
24408;DHT22;12542;50.924;4.516;2023-05-10T02:18:13;14.60;99.90
24408;DHT22;12542;50.924;4.516;2023-05-10T02:20:39;14.70;99.90
24408;DHT22;12542;50.924;4.516;2023-05-10T02:23:08;14.50;99.90
24408;DHT22;12542;50.924;4.516;2023-05-10T02:25:35;14.50;99.90
24408;DHT22;12542;50.924;4.516;2023-05-10T02:28:03;14.50;99.90
24408;DHT22;12542;50.924;4.516;2023-05-10T02:30:31;14.50;99.90
24408;DHT22;12542;50.924;4.516;2023-05-10T02:32:57;14.50;99.90
24408;DHT22;12542;50.924;4.516;2023-05-10T02:35:26;14.60;99.90
24408;DHT22;12542;50.924;4.516;2023-05-10T02:37:52;14.50;99.90
24408;DHT22;12542;50.924;4.516;2023-05-10T02:40:19;14.50;99.90
24408;DHT22;12542;50.924;4.516;2023-05-10T02:42:48;14.50;99.90
24408;DHT22;12542;50.924;4.516;2023-05-10T02:45:19;14.50;99.90
24408;DHT22;12542;50.924;4.516;2023-05-10T02:47:46;14.50;99.90
24408;DHT22;12542;50.924;4.516;2023-05-10T02:50:12;14.60;99.90
24408;DHT22;12542;50.924;4.516;2023-05-10T02:53:00;14.60;99.90
24408;DHT22;12542;50.924;4.516;2023-05-10T02:55:32;14.50;99.90
24408;DHT22;12542;50.924;4.516;2023-05-10T02:58:02;14.40;99.90
24408;DHT22;12542;50.924;4.516;2023-05-10T03:00:31;14.40;99.90
24408;DHT22;12542;50.924;4.516;2023-05-10T03:02:56;14.50;99.90
24408;DHT22;12542;50.924;4.516;2023-05-10T03:05:22;14.50;99.90
24408;DHT22;12542;50.924;4.516;2023-05-10T03:07:48;14.40;99.90
24408;DHT22;12542;50.924;4.516;2023-05-10T03:10:15;14.40;99.90
24408;DHT22;12542;50.924;4.516;2023-05-10T03:15:59;14.50;99.90
24408;DHT22;12542;50.924;4.516;2023-05-10T03:18:33;14.50;99.90
24408;DHT22;12542;50.924;4.516;2023-05-10T03:21:04;14.50;99.90
24408;DHT22;12542;50.924;4.516;2023-05-10T03:23:35;14.50;99.90
24408;DHT22;12542;50.924;4.516;2023-05-10T03:26:01;14.40;99.90
24408;DHT22;12542;50.924;4.516;2023-05-10T03:28:28;14.50;99.90
24408;DHT22;12542;50.924;4.516;2023-05-10T03:30:55;14.50;99.90
24408;DHT22;12542;50.924;4.516;2023-05-10T03:33:21;14.50;99.90
24408;DHT22;12542;50.924;4.516;2023-05-10T03:35:47;14.50;99.90
24408;DHT22;12542;50.924;4.516;2023-05-10T03:38:13;14.40;99.90
24408;DHT22;12542;50.924;4.516;2023-05-10T03:40:39;14.30;99.90
24408;DHT22;12542;50.924;4.516;2023-05-10T03:43:07;14.30;99.90
24408;DHT22;12542;50.924;4.516;2023-05-10T03:45:33;14.30;99.90
24408;DHT22;12542;50.924;4.516;2023-05-10T03:47:59;14.10;99.90
24408;DHT22;12542;50.924;4.516;2023-05-10T03:50:24;14.00;99.90
24408;DHT22;12542;50.924;4.516;2023-05-10T03:52:51;14.10;99.90
24408;DHT22;12542;50.924;4.516;2023-05-10T03:55:17;14.10;99.90
24408;DHT22;12542;50.924;4.516;2023-05-10T03:57:42;14.00;99.90
24408;DHT22;12542;50.924;4.516;2023-05-10T04:00:09;14.10;99.90
24408;DHT22;12542;50.924;4.516;2023-05-10T04:02:35;14.00;99.90
24408;DHT22;12542;50.924;4.516;2023-05-10T04:05:01;13.90;99.90
24408;DHT22;12542;50.924;4.516;2023-05-10T04:07:27;13.90;99.90
24408;DHT22;12542;50.924;4.516;2023-05-10T04:09:52;13.80;99.90
24408;DHT22;12542;50.924;4.516;2023-05-10T04:12:18;13.80;99.90
24408;DHT22;12542;50.924;4.516;2023-05-10T04:14:44;13.90;99.90
24408;DHT22;12542;50.924;4.516;2023-05-10T04:17:09;13.90;99.90
24408;DHT22;12542;50.924;4.516;2023-05-10T04:19:35;13.80;99.90
24408;DHT22;12542;50.924;4.516;2023-05-10T04:22:02;13.90;99.90
24408;DHT22;12542;50.924;4.516;2023-05-10T04:24:28;13.90;99.90
24408;DHT22;12542;50.924;4.516;2023-05-10T04:26:54;13.90;99.90
24408;DHT22;12542;50.924;4.516;2023-05-10T04:29:20;13.90;99.90
24408;DHT22;12542;50.924;4.516;2023-05-10T04:31:46;13.90;99.90
24408;DHT22;12542;50.924;4.516;2023-05-10T04:34:12;13.80;99.90
24408;DHT22;12542;50.924;4.516;2023-05-10T04:36:38;13.80;99.90
24408;DHT22;12542;50.924;4.516;2023-05-10T04:39:03;13.70;99.90
24408;DHT22;12542;50.924;4.516;2023-05-10T04:41:29;13.80;99.90
24408;DHT22;12542;50.924;4.516;2023-05-10T04:43:55;13.90;99.90
24408;DHT22;12542;50.924;4.516;2023-05-10T04:46:21;13.80;99.90
24408;DHT22;12542;50.924;4.516;2023-05-10T04:48:47;13.80;99.90
24408;DHT22;12542;50.924;4.516;2023-05-10T04:51:13;13.90;99.90
24408;DHT22;12542;50.924;4.516;2023-05-10T04:53:38;13.90;99.90
24408;DHT22;12542;50.924;4.516;2023-05-10T04:56:06;14.00;99.90
24408;DHT22;12542;50.924;4.516;2023-05-10T04:58:32;14.10;99.90
24408;DHT22;12542;50.924;4.516;2023-05-10T05:01:05;14.10;99.90
24408;DHT22;12542;50.924;4.516;2023-05-10T05:03:31;14.10;99.90
24408;DHT22;12542;50.924;4.516;2023-05-10T05:05:58;14.10;99.90
24408;DHT22;12542;50.924;4.516;2023-05-10T05:08:23;14.00;99.90
24408;DHT22;12542;50.924;4.516;2023-05-10T05:10:49;14.00;99.90
24408;DHT22;12542;50.924;4.516;2023-05-10T05:13:15;14.10;99.90
24408;DHT22;12542;50.924;4.516;2023-05-10T05:15:41;14.10;99.90
24408;DHT22;12542;50.924;4.516;2023-05-10T05:18:07;14.20;99.90
24408;DHT22;12542;50.924;4.516;2023-05-10T05:20:33;14.10;99.90
24408;DHT22;12542;50.924;4.516;2023-05-10T05:23:01;14.20;99.90
24408;DHT22;12542;50.924;4.516;2023-05-10T05:25:27;14.30;99.90
24408;DHT22;12542;50.924;4.516;2023-05-10T05:27:56;14.40;99.90
24408;DHT22;12542;50.924;4.516;2023-05-10T05:30:22;14.30;99.90
24408;DHT22;12542;50.924;4.516;2023-05-10T05:32:47;14.30;99.90
24408;DHT22;12542;50.924;4.516;2023-05-10T05:35:13;14.30;99.90
24408;DHT22;12542;50.924;4.516;2023-05-10T05:37:39;14.40;99.90
24408;DHT22;12542;50.924;4.516;2023-05-10T05:40:05;14.40;99.90
24408;DHT22;12542;50.924;4.516;2023-05-10T05:42:32;14.50;99.90
24408;DHT22;12542;50.924;4.516;2023-05-10T05:44:57;14.50;99.90
24408;DHT22;12542;50.924;4.516;2023-05-10T05:47:23;14.60;99.90
24408;DHT22;12542;50.924;4.516;2023-05-10T05:49:49;14.70;99.90
24408;DHT22;12542;50.924;4.516;2023-05-10T05:52:15;14.70;99.90
24408;DHT22;12542;50.924;4.516;2023-05-10T05:54:41;14.70;99.90
24408;DHT22;12542;50.924;4.516;2023-05-10T05:57:06;14.90;99.90
24408;DHT22;12542;50.924;4.516;2023-05-10T05:59:32;14.90;99.90
24408;DHT22;12542;50.924;4.516;2023-05-10T06:02:01;15.00;99.90
24408;DHT22;12542;50.924;4.516;2023-05-10T06:04:26;15.00;99.90
24408;DHT22;12542;50.924;4.516;2023-05-10T06:06:52;15.10;99.90
24408;DHT22;12542;50.924;4.516;2023-05-10T06:09:18;15.20;99.90
24408;DHT22;12542;50.924;4.516;2023-05-10T06:11:43;15.20;99.90
24408;DHT22;12542;50.924;4.516;2023-05-10T06:14:09;15.30;99.90
24408;DHT22;12542;50.924;4.516;2023-05-10T06:16:35;15.50;99.90
24408;DHT22;12542;50.924;4.516;2023-05-10T06:19:01;15.80;99.90
24408;DHT22;12542;50.924;4.516;2023-05-10T06:21:27;16.10;99.90
24408;DHT22;12542;50.924;4.516;2023-05-10T06:23:52;16.30;99.90
24408;DHT22;12542;50.924;4.516;2023-05-10T06:26:18;16.40;99.90
24408;DHT22;12542;50.924;4.516;2023-05-10T06:28:44;16.60;99.90
24408;DHT22;12542;50.924;4.516;2023-05-10T06:31:09;16.70;99.90
24408;DHT22;12542;50.924;4.516;2023-05-10T06:33:37;16.70;99.90
24408;DHT22;12542;50.924;4.516;2023-05-10T06:36:03;16.80;99.90
24408;DHT22;12542;50.924;4.516;2023-05-10T06:38:29;16.80;99.90
24408;DHT22;12542;50.924;4.516;2023-05-10T06:40:55;16.90;99.90
24408;DHT22;12542;50.924;4.516;2023-05-10T06:43:21;17.10;99.90
24408;DHT22;12542;50.924;4.516;2023-05-10T06:45:48;17.20;99.90
24408;DHT22;12542;50.924;4.516;2023-05-10T06:48:16;17.20;99.90
24408;DHT22;12542;50.924;4.516;2023-05-10T06:50:41;17.20;99.90
24408;DHT22;12542;50.924;4.516;2023-05-10T06:53:07;17.00;99.90
24408;DHT22;12542;50.924;4.516;2023-05-10T06:55:33;17.10;99.90
24408;DHT22;12542;50.924;4.516;2023-05-10T06:57:59;17.10;99.90
24408;DHT22;12542;50.924;4.516;2023-05-10T07:00:24;16.90;99.90
24408;DHT22;12542;50.924;4.516;2023-05-10T07:02:50;16.80;99.90
24408;DHT22;12542;50.924;4.516;2023-05-10T07:05:16;16.70;99.90
24408;DHT22;12542;50.924;4.516;2023-05-10T07:07:42;16.70;99.90
24408;DHT22;12542;50.924;4.516;2023-05-10T07:10:08;16.70;99.90
24408;DHT22;12542;50.924;4.516;2023-05-10T07:12:34;16.60;99.90
24408;DHT22;12542;50.924;4.516;2023-05-10T07:15:00;16.70;99.90
24408;DHT22;12542;50.924;4.516;2023-05-10T07:17:25;16.70;99.90
24408;DHT22;12542;50.924;4.516;2023-05-10T07:19:51;16.60;99.90
24408;DHT22;12542;50.924;4.516;2023-05-10T07:22:17;16.60;99.90
24408;DHT22;12542;50.924;4.516;2023-05-10T07:24:44;16.40;99.90
24408;DHT22;12542;50.924;4.516;2023-05-10T07:27:10;16.40;99.90
24408;DHT22;12542;50.924;4.516;2023-05-10T07:29:36;16.30;99.90
24408;DHT22;12542;50.924;4.516;2023-05-10T07:32:05;16.30;99.90
24408;DHT22;12542;50.924;4.516;2023-05-10T07:34:33;16.00;99.90
24408;DHT22;12542;50.924;4.516;2023-05-10T07:36:59;16.00;99.90
24408;DHT22;12542;50.924;4.516;2023-05-10T07:39:26;16.20;99.90
24408;DHT22;12542;50.924;4.516;2023-05-10T07:41:52;16.30;99.90
24408;DHT22;12542;50.924;4.516;2023-05-10T07:44:18;16.30;99.90
24408;DHT22;12542;50.924;4.516;2023-05-10T07:46:45;16.20;99.90
24408;DHT22;12542;50.924;4.516;2023-05-10T07:49:11;16.20;99.90
24408;DHT22;12542;50.924;4.516;2023-05-10T07:51:37;16.10;99.90
24408;DHT22;12542;50.924;4.516;2023-05-10T07:54:03;16.00;99.90
24408;DHT22;12542;50.924;4.516;2023-05-10T07:56:32;15.90;99.90
24408;DHT22;12542;50.924;4.516;2023-05-10T07:59:02;16.00;99.90
24408;DHT22;12542;50.924;4.516;2023-05-10T08:01:33;16.10;99.90
24408;DHT22;12542;50.924;4.516;2023-05-10T08:04:00;16.20;99.90
24408;DHT22;12542;50.924;4.516;2023-05-10T08:06:26;16.20;99.90
24408;DHT22;12542;50.924;4.516;2023-05-10T08:08:55;16.00;99.90
24408;DHT22;12542;50.924;4.516;2023-05-10T08:11:21;16.00;99.90
24408;DHT22;12542;50.924;4.516;2023-05-10T08:13:48;16.10;99.90
24408;DHT22;12542;50.924;4.516;2023-05-10T08:16:15;15.90;99.90
24408;DHT22;12542;50.924;4.516;2023-05-10T08:18:41;16.00;99.90
24408;DHT22;12542;50.924;4.516;2023-05-10T08:21:07;16.00;99.90
24408;DHT22;12542;50.924;4.516;2023-05-10T08:23:33;16.10;99.90
24408;DHT22;12542;50.924;4.516;2023-05-10T08:25:59;16.00;99.90
24408;DHT22;12542;50.924;4.516;2023-05-10T08:28:24;16.10;99.90
24408;DHT22;12542;50.924;4.516;2023-05-10T08:30:50;16.10;99.90
24408;DHT22;12542;50.924;4.516;2023-05-10T08:33:18;16.20;99.90
24408;DHT22;12542;50.924;4.516;2023-05-10T08:35:44;16.40;99.90
24408;DHT22;12542;50.924;4.516;2023-05-10T08:38:10;16.50;99.90
24408;DHT22;12542;50.924;4.516;2023-05-10T08:40:37;16.70;99.90
24408;DHT22;12542;50.924;4.516;2023-05-10T08:43:08;16.90;99.90
24408;DHT22;12542;50.924;4.516;2023-05-10T08:45:41;16.90;99.90
24408;DHT22;12542;50.924;4.516;2023-05-10T08:48:09;16.90;99.90
24408;DHT22;12542;50.924;4.516;2023-05-10T08:50:41;17.00;99.90
24408;DHT22;12542;50.924;4.516;2023-05-10T08:53:12;17.10;99.90
24408;DHT22;12542;50.924;4.516;2023-05-10T08:55:39;17.10;99.90
24408;DHT22;12542;50.924;4.516;2023-05-10T08:58:06;17.00;99.90
24408;DHT22;12542;50.924;4.516;2023-05-10T09:00:32;17.10;99.90
24408;DHT22;12542;50.924;4.516;2023-05-10T09:02:59;17.20;99.90
24408;DHT22;12542;50.924;4.516;2023-05-10T09:05:26;17.10;99.90
24408;DHT22;12542;50.924;4.516;2023-05-10T09:07:52;16.90;99.90
24408;DHT22;12542;50.924;4.516;2023-05-10T09:10:19;16.90;99.90
24408;DHT22;12542;50.924;4.516;2023-05-10T09:12:45;16.90;99.90
24408;DHT22;12542;50.924;4.516;2023-05-10T09:15:11;17.10;99.90
24408;DHT22;12542;50.924;4.516;2023-05-10T09:17:40;17.10;99.90
24408;DHT22;12542;50.924;4.516;2023-05-10T09:20:09;17.10;99.90
24408;DHT22;12542;50.924;4.516;2023-05-10T09:22:35;17.00;99.90
24408;DHT22;12542;50.924;4.516;2023-05-10T09:25:09;17.00;99.90
24408;DHT22;12542;50.924;4.516;2023-05-10T09:27:37;17.00;99.90
24408;DHT22;12542;50.924;4.516;2023-05-10T09:30:04;16.90;99.90
24408;DHT22;12542;50.924;4.516;2023-05-10T09:32:44;16.80;99.90
24408;DHT22;12542;50.924;4.516;2023-05-10T09:35:22;16.80;99.90
24408;DHT22;12542;50.924;4.516;2023-05-10T09:37:50;16.60;99.90
24408;DHT22;12542;50.924;4.516;2023-05-10T09:40:29;16.30;99.90
24408;DHT22;12542;50.924;4.516;2023-05-10T09:43:02;16.30;99.90
24408;DHT22;12542;50.924;4.516;2023-05-10T09:45:30;16.30;99.90
24408;DHT22;12542;50.924;4.516;2023-05-10T09:47:56;16.40;99.90
24408;DHT22;12542;50.924;4.516;2023-05-10T09:50:23;16.50;99.90
24408;DHT22;12542;50.924;4.516;2023-05-10T09:52:57;16.60;99.90
24408;DHT22;12542;50.924;4.516;2023-05-10T09:58:00;16.70;99.90
24408;DHT22;12542;50.924;4.516;2023-05-10T10:00:26;16.70;99.90
24408;DHT22;12542;50.924;4.516;2023-05-10T10:02:59;16.80;99.90
24408;DHT22;12542;50.924;4.516;2023-05-10T10:05:29;16.70;99.90
24408;DHT22;12542;50.924;4.516;2023-05-10T10:07:57;16.80;99.90
24408;DHT22;12542;50.924;4.516;2023-05-10T10:10:24;16.80;99.90
24408;DHT22;12542;50.924;4.516;2023-05-10T10:12:51;16.80;99.90
24408;DHT22;12542;50.924;4.516;2023-05-10T10:15:17;16.80;99.90
24408;DHT22;12542;50.924;4.516;2023-05-10T10:17:43;16.80;99.90
24408;DHT22;12542;50.924;4.516;2023-05-10T10:20:10;16.80;99.90
24408;DHT22;12542;50.924;4.516;2023-05-10T10:22:37;16.70;99.90
24408;DHT22;12542;50.924;4.516;2023-05-10T10:25:04;16.60;99.90
24408;DHT22;12542;50.924;4.516;2023-05-10T10:30:19;16.90;99.90
24408;DHT22;12542;50.924;4.516;2023-05-10T10:35:34;17.00;99.90
24408;DHT22;12542;50.924;4.516;2023-05-10T10:38:03;17.10;99.90
24408;DHT22;12542;50.924;4.516;2023-05-10T10:40:31;17.10;99.90
24408;DHT22;12542;50.924;4.516;2023-05-10T10:42:59;17.20;99.90
24408;DHT22;12542;50.924;4.516;2023-05-10T10:45:43;17.10;99.90
24408;DHT22;12542;50.924;4.516;2023-05-10T10:48:23;16.80;99.90
24408;DHT22;12542;50.924;4.516;2023-05-10T10:50:56;16.80;99.90
24408;DHT22;12542;50.924;4.516;2023-05-10T10:53:26;16.70;99.90
24408;DHT22;12542;50.924;4.516;2023-05-10T10:56:11;16.70;99.90
24408;DHT22;12542;50.924;4.516;2023-05-10T10:58:39;16.70;99.90
24408;DHT22;12542;50.924;4.516;2023-05-10T11:01:18;16.80;99.90
24408;DHT22;12542;50.924;4.516;2023-05-10T11:09:39;16.60;99.90
24408;DHT22;12542;50.924;4.516;2023-05-10T11:12:10;16.70;99.90
24408;DHT22;12542;50.924;4.516;2023-05-10T11:14:38;16.20;99.90
24408;DHT22;12542;50.924;4.516;2023-05-10T11:17:24;16.30;99.90
24408;DHT22;12542;50.924;4.516;2023-05-10T11:22:53;16.40;99.90
24408;DHT22;12542;50.924;4.516;2023-05-10T11:25:26;16.60;99.90
24408;DHT22;12542;50.924;4.516;2023-05-10T11:27:53;16.30;99.90
24408;DHT22;12542;50.924;4.516;2023-05-10T11:30:19;16.30;99.90
24408;DHT22;12542;50.924;4.516;2023-05-10T11:32:45;16.50;99.90
24408;DHT22;12542;50.924;4.516;2023-05-10T11:35:11;16.70;99.90
24408;DHT22;12542;50.924;4.516;2023-05-10T11:37:39;16.70;99.90
24408;DHT22;12542;50.924;4.516;2023-05-10T11:40:09;16.70;99.90
24408;DHT22;12542;50.924;4.516;2023-05-10T11:42:38;16.80;99.90
24408;DHT22;12542;50.924;4.516;2023-05-10T11:45:04;16.40;99.90
24408;DHT22;12542;50.924;4.516;2023-05-10T11:47:30;16.40;99.90
24408;DHT22;12542;50.924;4.516;2023-05-10T11:49:57;16.00;99.90
24408;DHT22;12542;50.924;4.516;2023-05-10T11:52:23;16.10;99.90
24408;DHT22;12542;50.924;4.516;2023-05-10T11:54:55;16.40;99.90
24408;DHT22;12542;50.924;4.516;2023-05-10T11:57:26;16.20;99.90
24408;DHT22;12542;50.924;4.516;2023-05-10T11:59:56;16.10;99.90
24408;DHT22;12542;50.924;4.516;2023-05-10T12:02:22;16.30;99.90
24408;DHT22;12542;50.924;4.516;2023-05-10T12:04:48;16.50;99.90
24408;DHT22;12542;50.924;4.516;2023-05-10T12:07:16;16.80;99.90
24408;DHT22;12542;50.924;4.516;2023-05-10T12:10:07;17.10;99.90
24408;DHT22;12542;50.924;4.516;2023-05-10T12:12:43;17.50;99.90
24408;DHT22;12542;50.924;4.516;2023-05-10T12:15:27;17.30;99.90
24408;DHT22;12542;50.924;4.516;2023-05-10T12:17:53;17.70;99.90
24408;DHT22;12542;50.924;4.516;2023-05-10T12:20:20;18.00;99.90
24408;DHT22;12542;50.924;4.516;2023-05-10T12:22:51;18.00;99.90
24408;DHT22;12542;50.924;4.516;2023-05-10T12:25:18;18.00;99.90
24408;DHT22;12542;50.924;4.516;2023-05-10T12:27:57;18.10;99.90
24408;DHT22;12542;50.924;4.516;2023-05-10T12:30:28;18.20;99.90
24408;DHT22;12542;50.924;4.516;2023-05-10T12:33:07;18.50;99.90
24408;DHT22;12542;50.924;4.516;2023-05-10T12:35:44;18.70;99.90
24408;DHT22;12542;50.924;4.516;2023-05-10T12:41:06;19.30;99.90
24408;DHT22;12542;50.924;4.516;2023-05-10T12:43:32;19.60;99.90
24408;DHT22;12542;50.924;4.516;2023-05-10T12:45:58;19.50;99.90
24408;DHT22;12542;50.924;4.516;2023-05-10T12:48:24;19.80;99.90
24408;DHT22;12542;50.924;4.516;2023-05-10T12:50:50;20.10;99.90
24408;DHT22;12542;50.924;4.516;2023-05-10T12:53:16;20.10;99.90
24408;DHT22;12542;50.924;4.516;2023-05-10T12:55:44;20.10;99.90
24408;DHT22;12542;50.924;4.516;2023-05-10T12:58:10;20.10;99.90
24408;DHT22;12542;50.924;4.516;2023-05-10T13:00:36;20.10;99.90
24408;DHT22;12542;50.924;4.516;2023-05-10T13:03:04;20.30;99.90
24408;DHT22;12542;50.924;4.516;2023-05-10T13:05:34;20.30;99.90
24408;DHT22;12542;50.924;4.516;2023-05-10T13:08:00;20.60;99.90
24408;DHT22;12542;50.924;4.516;2023-05-10T13:10:26;20.90;99.90
24408;DHT22;12542;50.924;4.516;2023-05-10T13:12:51;20.90;99.90
24408;DHT22;12542;50.924;4.516;2023-05-10T13:15:17;20.70;99.90
24408;DHT22;12542;50.924;4.516;2023-05-10T13:17:43;21.00;99.90
24408;DHT22;12542;50.924;4.516;2023-05-10T13:20:10;20.90;99.90
24408;DHT22;12542;50.924;4.516;2023-05-10T13:22:36;21.00;99.90
24408;DHT22;12542;50.924;4.516;2023-05-10T13:25:02;21.10;99.90
24408;DHT22;12542;50.924;4.516;2023-05-10T13:27:28;20.80;99.90
24408;DHT22;12542;50.924;4.516;2023-05-10T13:29:54;20.90;99.90
24408;DHT22;12542;50.924;4.516;2023-05-10T13:32:20;21.10;99.90
24408;DHT22;12542;50.924;4.516;2023-05-10T13:34:46;20.90;99.90
24408;DHT22;12542;50.924;4.516;2023-05-10T13:37:12;21.00;99.90
24408;DHT22;12542;50.924;4.516;2023-05-10T13:39:38;21.20;99.90
24408;DHT22;12542;50.924;4.516;2023-05-10T13:42:04;21.50;99.90
24408;DHT22;12542;50.924;4.516;2023-05-10T13:44:30;21.50;99.90
24408;DHT22;12542;50.924;4.516;2023-05-10T13:46:56;21.50;99.90
24408;DHT22;12542;50.924;4.516;2023-05-10T13:49:22;21.20;99.90
24408;DHT22;12542;50.924;4.516;2023-05-10T13:51:48;21.10;99.90
24408;DHT22;12542;50.924;4.516;2023-05-10T13:54:13;21.20;99.90
24408;DHT22;12542;50.924;4.516;2023-05-10T13:56:40;21.30;99.90
24408;DHT22;12542;50.924;4.516;2023-05-10T13:59:09;21.20;99.90
24408;DHT22;12542;50.924;4.516;2023-05-10T14:01:34;21.20;99.90
24408;DHT22;12542;50.924;4.516;2023-05-10T14:04:00;20.90;99.90
24408;DHT22;12542;50.924;4.516;2023-05-10T14:06:26;20.90;99.90
24408;DHT22;12542;50.924;4.516;2023-05-10T14:08:53;20.90;99.90
24408;DHT22;12542;50.924;4.516;2023-05-10T14:11:19;20.90;99.90
24408;DHT22;12542;50.924;4.516;2023-05-10T14:13:45;20.80;99.90
24408;DHT22;12542;50.924;4.516;2023-05-10T14:16:11;20.80;99.90
24408;DHT22;12542;50.924;4.516;2023-05-10T14:18:37;20.80;99.90
24408;DHT22;12542;50.924;4.516;2023-05-10T14:21:03;20.70;99.90
24408;DHT22;12542;50.924;4.516;2023-05-10T14:23:29;20.80;99.90
24408;DHT22;12542;50.924;4.516;2023-05-10T14:25:57;20.60;99.90
24408;DHT22;12542;50.924;4.516;2023-05-10T14:28:23;20.60;99.90
24408;DHT22;12542;50.924;4.516;2023-05-10T14:30:50;20.50;99.90
24408;DHT22;12542;50.924;4.516;2023-05-10T14:33:16;20.60;99.90
24408;DHT22;12542;50.924;4.516;2023-05-10T14:35:42;20.60;99.90
24408;DHT22;12542;50.924;4.516;2023-05-10T14:38:08;20.40;99.90
24408;DHT22;12542;50.924;4.516;2023-05-10T14:40:34;20.40;99.90
24408;DHT22;12542;50.924;4.516;2023-05-10T14:43:02;20.20;99.90
24408;DHT22;12542;50.924;4.516;2023-05-10T14:45:28;20.20;99.90
24408;DHT22;12542;50.924;4.516;2023-05-10T14:47:53;20.10;99.90
24408;DHT22;12542;50.924;4.516;2023-05-10T14:50:19;20.00;99.90
24408;DHT22;12542;50.924;4.516;2023-05-10T14:52:45;19.90;99.90
24408;DHT22;12542;50.924;4.516;2023-05-10T14:55:11;20.00;99.90
24408;DHT22;12542;50.924;4.516;2023-05-10T14:57:36;20.00;99.90
24408;DHT22;12542;50.924;4.516;2023-05-10T15:00:03;20.00;99.90
24408;DHT22;12542;50.924;4.516;2023-05-10T15:02:30;20.00;99.90
24408;DHT22;12542;50.924;4.516;2023-05-10T15:04:56;20.00;99.90
24408;DHT22;12542;50.924;4.516;2023-05-10T15:07:23;20.00;99.90
24408;DHT22;12542;50.924;4.516;2023-05-10T15:09:50;20.00;99.90
24408;DHT22;12542;50.924;4.516;2023-05-10T15:12:17;20.00;99.90
24408;DHT22;12542;50.924;4.516;2023-05-10T15:14:43;19.80;99.90
24408;DHT22;12542;50.924;4.516;2023-05-10T15:17:08;19.50;99.90
24408;DHT22;12542;50.924;4.516;2023-05-10T15:19:34;19.50;99.90
24408;DHT22;12542;50.924;4.516;2023-05-10T15:22:00;19.30;99.90
24408;DHT22;12542;50.924;4.516;2023-05-10T15:24:26;18.90;99.90
24408;DHT22;12542;50.924;4.516;2023-05-10T15:26:51;18.60;99.90
24408;DHT22;12542;50.924;4.516;2023-05-10T15:29:17;18.40;99.90
24408;DHT22;12542;50.924;4.516;2023-05-10T15:31:49;18.20;99.90
24408;DHT22;12542;50.924;4.516;2023-05-10T15:34:16;18.00;99.90
24408;DHT22;12542;50.924;4.516;2023-05-10T15:36:42;17.80;99.90
24408;DHT22;12542;50.924;4.516;2023-05-10T15:39:07;17.50;99.90
24408;DHT22;12542;50.924;4.516;2023-05-10T15:41:36;17.30;99.90
24408;DHT22;12542;50.924;4.516;2023-05-10T15:44:04;16.80;99.90
24408;DHT22;12542;50.924;4.516;2023-05-10T15:46:30;16.70;99.90
24408;DHT22;12542;50.924;4.516;2023-05-10T15:48:59;16.50;99.90
24408;DHT22;12542;50.924;4.516;2023-05-10T15:51:25;16.60;99.90
24408;DHT22;12542;50.924;4.516;2023-05-10T15:53:51;16.60;99.90
24408;DHT22;12542;50.924;4.516;2023-05-10T15:56:16;16.50;99.90
24408;DHT22;12542;50.924;4.516;2023-05-10T15:58:42;16.60;99.90
24408;DHT22;12542;50.924;4.516;2023-05-10T16:01:09;16.60;99.90
24408;DHT22;12542;50.924;4.516;2023-05-10T16:03:37;16.60;99.90
24408;DHT22;12542;50.924;4.516;2023-05-10T16:06:03;16.70;99.90